createdAt,value
2022-09-21T00:00:45.399Z,7.72
2022-09-21T00:10:46.857Z,9.27
2022-09-21T00:20:48.245Z,10.25
2022-09-21T00:30:51.922Z,12.93
2022-09-21T00:40:54.372Z,8.93
2022-09-21T00:50:56.203Z,9.40
2022-09-21T01:00:57.542Z,8.95
2022-09-21T01:10:58.916Z,9.82
2022-09-21T01:21:00.469Z,9.60
2022-09-21T01:31:06.251Z,10.43
2022-09-21T01:41:08.090Z,9.88
2022-09-21T01:51:09.796Z,8.70
2022-09-21T02:01:11.174Z,9.85
2022-09-21T02:11:13.450Z,12.60
2022-09-21T02:21:15.346Z,11.30
2022-09-21T02:31:17.732Z,17.50
2022-09-21T02:41:19.836Z,10.60
2022-09-21T02:51:21.154Z,9.60
2022-09-21T03:01:22.458Z,12.20
2022-09-21T03:11:23.756Z,16.95
2022-09-21T03:21:25.027Z,20.35
2022-09-21T03:31:26.347Z,14.07
2022-09-21T03:41:27.737Z,21.83
2022-09-21T03:51:29.923Z,17.55
2022-09-21T04:01:31.508Z,11.85
2022-09-21T04:11:33.381Z,10.90
2022-09-21T04:21:34.723Z,11.88
2022-09-21T04:31:36.062Z,15.70
2022-09-21T04:41:37.394Z,18.83
2022-09-21T04:51:39.111Z,18.58
2022-09-21T05:01:40.549Z,17.48
2022-09-21T05:11:41.876Z,18.50
2022-09-21T05:21:43.169Z,17.15
2022-09-21T05:31:44.630Z,21.08
2022-09-21T05:41:46.002Z,20.58
2022-09-21T05:51:47.315Z,17.10
2022-09-21T06:01:48.638Z,19.90
2022-09-21T06:11:49.960Z,18.88
2022-09-21T06:21:51.262Z,19.75
2022-09-21T06:31:52.591Z,25.50
2022-09-21T06:41:53.956Z,20.75
2022-09-21T06:51:55.268Z,17.88
2022-09-21T07:01:58.492Z,18.63
2022-09-21T07:12:00.223Z,20.52
2022-09-21T07:22:01.546Z,16.10
2022-09-21T07:32:02.919Z,17.17
2022-09-21T07:42:04.260Z,16.52
2022-09-21T07:52:09.393Z,20.83
2022-09-21T08:02:12.062Z,17.08
2022-09-21T08:12:13.374Z,16.02
2022-09-21T08:22:14.673Z,17.42
2022-09-21T08:32:39.441Z,17.30
2022-09-21T08:42:37.276Z,17.60
2022-09-21T08:52:38.554Z,15.48
2022-09-21T09:02:39.883Z,14.90
2022-09-21T09:12:41.280Z,10.95
2022-09-21T09:22:42.620Z,12.30
2022-09-21T09:32:44.085Z,9.15
2022-09-21T09:42:45.391Z,9.30
2022-09-21T09:52:46.698Z,7.60
2022-09-21T10:02:49.408Z,10.30
2022-09-21T10:12:50.727Z,12.48
2022-09-21T10:22:51.941Z,8.13
2022-09-21T10:32:53.271Z,9.68
2022-09-21T10:42:54.786Z,6.95
2022-09-21T10:52:56.914Z,7.30
2022-09-21T11:02:58.455Z,5.70
2022-09-21T11:12:59.940Z,5.75
2022-09-21T11:23:01.366Z,5.63
2022-09-21T11:33:03.192Z,2.85
2022-09-21T11:43:04.607Z,5.05
2022-09-21T11:53:05.970Z,3.22
2022-09-21T12:03:07.396Z,4.15
2022-09-21T12:13:08.845Z,3.25
2022-09-21T12:23:10.108Z,4.07
2022-09-21T12:33:11.812Z,1.42
2022-09-21T12:43:13.020Z,4.03
2022-09-21T12:53:14.337Z,3.20
2022-09-21T13:03:15.634Z,2.88
2022-09-21T13:13:18.150Z,1.75
2022-09-21T13:23:19.433Z,3.33
2022-09-21T13:33:20.648Z,2.00
2022-09-21T13:43:21.954Z,1.02
2022-09-21T13:53:23.488Z,1.63
2022-09-21T14:03:24.784Z,1.90
2022-09-21T14:13:26.147Z,1.70
2022-09-21T14:23:27.970Z,1.65
2022-09-21T14:33:29.341Z,2.53
2022-09-21T14:43:30.631Z,2.70
2022-09-21T14:53:34.499Z,1.20
2022-09-21T15:03:39.345Z,1.33
2022-09-21T15:13:41.829Z,1.90
2022-09-21T15:23:44.105Z,3.20
2022-09-21T15:33:46.737Z,1.33
2022-09-21T15:43:48.068Z,1.58
2022-09-21T15:53:49.363Z,2.47
2022-09-21T16:03:55.149Z,0.60
2022-09-21T16:14:17.093Z,1.50
2022-09-21T17:06:02.607Z,2.05
2022-09-21T17:16:03.981Z,3.05
2022-09-21T17:26:05.343Z,7.05
2022-09-21T17:36:06.614Z,4.05
2022-09-21T17:46:08.406Z,3.28
2022-09-21T17:56:09.784Z,4.38
2022-09-21T18:06:11.132Z,17.48
2022-09-21T18:16:12.444Z,11.98
2022-09-21T18:26:15.571Z,5.03
2022-09-21T18:36:16.912Z,4.97
2022-09-21T18:46:18.176Z,5.15
2022-09-21T18:56:20.506Z,6.22
2022-09-21T19:06:22.258Z,5.00
2022-09-21T19:16:23.622Z,5.63
2022-09-21T19:26:24.978Z,4.10
2022-09-21T19:36:26.199Z,4.72
2022-09-21T19:46:27.762Z,9.88
2022-09-21T19:56:50.987Z,4.15
2022-09-21T20:16:57.185Z,4.43
2022-09-21T20:26:58.712Z,5.57
2022-09-21T20:37:00.032Z,10.20
2022-09-21T20:47:01.356Z,5.40
2022-09-21T20:57:02.687Z,4.35
2022-09-21T21:07:04.387Z,4.30
2022-09-21T21:17:06.122Z,5.20
2022-09-21T21:27:07.453Z,5.10
2022-09-21T21:37:09.242Z,5.03
2022-09-21T21:47:35.095Z,5.70
2022-09-21T21:57:33.324Z,5.72
2022-09-21T22:07:34.680Z,7.50
2022-09-21T22:17:35.979Z,8.18
2022-09-21T22:27:37.184Z,4.93
2022-09-21T22:37:38.590Z,5.90
2022-09-21T22:47:41.604Z,4.55
2022-09-21T22:57:42.950Z,3.95
2022-09-21T23:07:44.264Z,5.97
2022-09-21T23:17:45.563Z,3.75
2022-09-21T23:27:46.908Z,4.68
2022-09-21T23:37:48.224Z,5.13
2022-09-21T23:47:49.521Z,4.65
2022-09-21T23:57:51.236Z,6.45
